createdAt,value
2018-04-22T00:00:55.106Z,95787
2018-04-22T00:03:26.378Z,95780
2018-04-22T00:05:57.969Z,95778
2018-04-22T00:08:29.027Z,95771
2018-04-22T00:11:00.845Z,95766
2018-04-22T00:13:33.981Z,95770
2018-04-22T00:16:05.835Z,95768
2018-04-22T00:18:37.745Z,95769
2018-04-22T00:21:09.159Z,95767
2018-04-22T00:23:40.252Z,95764
2018-04-22T00:26:11.383Z,95770
2018-04-22T00:28:42.582Z,95762
2018-04-22T00:31:14.192Z,95756
2018-04-22T00:33:45.590Z,95762
2018-04-22T00:36:16.858Z,95758
2018-04-22T00:38:47.975Z,95750
2018-04-22T00:41:19.217Z,95743
2018-04-22T00:43:50.449Z,95743
2018-04-22T00:46:21.720Z,95736
2018-04-22T00:48:52.989Z,95735
2018-04-22T00:51:24.638Z,95736
2018-04-22T00:54:04.450Z,95736
2018-04-22T00:56:35.913Z,95733
2018-04-22T00:59:07.117Z,95731
2018-04-22T01:01:38.285Z,95728
2018-04-22T01:04:09.372Z,95727
2018-04-22T01:06:40.995Z,95729
2018-04-22T01:09:12.205Z,95723
2018-04-22T01:11:43.292Z,95722
2018-04-22T01:14:14.471Z,95720
2018-04-22T01:16:45.669Z,95719
2018-04-22T01:19:17.014Z,95718
2018-04-22T01:21:48.540Z,95711
2018-04-22T01:24:19.777Z,95717
2018-04-22T01:30:08.925Z,95708
2018-04-22T01:32:40.205Z,95705
2018-04-22T01:35:11.540Z,95707
2018-04-22T01:37:42.672Z,95713
2018-04-22T01:40:15.963Z,95712
2018-04-22T01:42:47.152Z,95716
2018-04-22T01:45:18.794Z,95714
2018-04-22T01:47:49.989Z,95715
2018-04-22T01:50:21.307Z,95708
2018-04-22T01:52:52.506Z,95715
2018-04-22T01:55:23.739Z,95712
2018-04-22T01:57:55.444Z,95711
2018-04-22T02:00:26.879Z,95707
2018-04-22T02:02:58.023Z,95709
2018-04-22T02:05:29.331Z,95711
2018-04-22T02:08:03.225Z,95707
2018-04-22T02:10:34.427Z,95704
2018-04-22T02:13:05.789Z,95697
2018-04-22T02:15:37.365Z,95699
2018-04-22T02:18:08.542Z,95695
2018-04-22T02:20:39.708Z,95699
2018-04-22T02:23:10.844Z,95698
2018-04-22T02:25:42.003Z,95699
2018-04-22T02:28:13.772Z,95694
2018-04-22T02:30:44.945Z,95688
2018-04-22T02:33:16.161Z,95689
2018-04-22T02:35:47.349Z,95679
2018-04-22T02:38:18.604Z,95680
2018-04-22T02:40:51.027Z,95673
2018-04-22T02:43:22.251Z,95678
2018-04-22T02:45:53.492Z,95679
2018-04-22T02:48:24.630Z,95680
2018-04-22T02:50:56.136Z,95676
2018-04-22T02:53:27.389Z,95682
2018-04-22T02:55:59.623Z,95678
2018-04-22T02:58:30.890Z,95684
2018-04-22T03:01:02.077Z,95684
2018-04-22T03:03:33.170Z,95686
2018-04-22T03:06:04.947Z,95676
2018-04-22T03:08:37.128Z,95677
2018-04-22T03:11:08.613Z,95671
2018-04-22T03:13:39.829Z,95668
2018-04-22T03:16:10.895Z,95661
2018-04-22T03:18:41.948Z,95660
2018-04-22T03:21:13.316Z,95656
2018-04-22T03:23:44.663Z,95659
2018-04-22T03:26:16.422Z,95651
2018-04-22T03:28:47.617Z,95654
2018-04-22T03:31:18.945Z,95661
2018-04-22T03:33:51.210Z,95658
2018-04-22T03:36:22.956Z,95661
2018-04-22T03:38:53.979Z,95656
2018-04-22T03:41:25.077Z,95661
2018-04-22T03:43:56.756Z,95656
2018-04-22T03:46:28.029Z,95649
2018-04-22T03:48:59.150Z,95647
2018-04-22T03:51:30.457Z,95644
2018-04-22T03:54:01.745Z,95645
2018-04-22T03:56:33.105Z,95641
2018-04-22T03:59:21.520Z,95644
2018-04-22T04:01:53.218Z,95639
2018-04-22T04:21:40.297Z,95636
2018-04-22T04:24:24.235Z,95639
2018-04-22T04:30:12.288Z,95644
2018-04-22T04:32:54.513Z,95642
2018-04-22T04:38:41.889Z,95630
2018-04-22T04:42:17.664Z,95633
2018-04-22T04:44:48.728Z,95632
2018-04-22T04:47:19.384Z,95634
2018-04-22T04:49:50.027Z,95632
2018-04-22T04:52:20.781Z,95634
2018-04-22T04:54:51.660Z,95635
2018-04-22T04:57:22.391Z,95632
2018-04-22T04:59:53.491Z,95636
2018-04-22T05:02:24.076Z,95636
2018-04-22T05:04:54.794Z,95639
2018-04-22T05:07:25.401Z,95640
2018-04-22T05:09:56.105Z,95639
2018-04-22T05:12:26.809Z,95631
2018-04-22T05:14:57.601Z,95635
2018-04-22T05:17:28.231Z,95642
2018-04-22T05:19:58.924Z,95640
2018-04-22T05:22:29.641Z,95638
2018-04-22T05:25:00.272Z,95639
2018-04-22T05:27:30.952Z,95637
2018-04-22T05:30:01.580Z,95638
2018-04-22T05:32:32.180Z,95640
2018-04-22T05:35:03.403Z,95638
2018-04-22T05:37:34.068Z,95641
2018-04-22T05:40:05.176Z,95639
2018-04-22T05:42:35.744Z,95642
2018-04-22T05:45:06.637Z,95642
2018-04-22T05:47:37.311Z,95644
2018-04-22T05:50:08.092Z,95642
2018-04-22T05:52:38.976Z,95637
2018-04-22T05:55:09.973Z,95635
2018-04-22T05:57:40.651Z,95626
2018-04-22T06:00:11.340Z,95622
2018-04-22T06:02:42.066Z,95630
2018-04-22T06:05:12.696Z,95632
2018-04-22T06:07:43.239Z,95633
2018-04-22T06:10:13.881Z,95631
2018-04-22T06:12:44.743Z,95623
2018-04-22T06:15:15.643Z,95618
2018-04-22T06:17:46.409Z,95620
2018-04-22T06:20:17.215Z,95620
2018-04-22T06:22:47.961Z,95614
2018-04-22T06:25:20.547Z,95616
2018-04-22T06:27:51.283Z,95618
2018-04-22T06:30:22.320Z,95614
2018-04-22T06:32:52.905Z,95610
2018-04-22T06:35:24.004Z,95599
2018-04-22T06:37:54.742Z,95597
2018-04-22T06:40:25.580Z,95594
2018-04-22T06:42:56.351Z,95592
2018-04-22T06:45:27.577Z,95596
2018-04-22T06:47:58.480Z,95597
2018-04-22T06:50:29.884Z,95598
2018-04-22T06:53:01.006Z,95593
2018-04-22T06:55:31.883Z,95590
2018-04-22T06:58:02.463Z,95593
2018-04-22T07:00:35.503Z,95586
2018-04-22T07:03:06.562Z,95588
2018-04-22T07:05:37.132Z,95590
2018-04-22T07:08:08.164Z,95590
2018-04-22T07:10:39.014Z,95586
2018-04-22T07:13:09.718Z,95584
2018-04-22T07:15:40.681Z,95583
2018-04-22T07:18:11.270Z,95580
2018-04-22T07:20:46.123Z,95579
2018-04-22T07:23:16.847Z,95578
2018-04-22T07:25:47.764Z,95576
2018-04-22T07:28:18.500Z,95572
2018-04-22T07:30:49.336Z,95577
2018-04-22T07:33:20.092Z,95581
2018-04-22T07:35:50.707Z,95568
2018-04-22T07:38:21.429Z,95571
2018-04-22T07:40:52.181Z,95569
2018-04-22T07:43:22.885Z,95574
2018-04-22T07:45:53.832Z,95576
2018-04-22T07:48:24.588Z,95573
2018-04-22T07:50:55.180Z,95566
2018-04-22T07:53:26.062Z,95564
2018-04-22T07:55:56.744Z,95562
2018-04-22T07:58:27.410Z,95562
2018-04-22T08:00:58.442Z,95558
2018-04-22T08:03:29.156Z,95557
2018-04-22T08:05:59.849Z,95557
2018-04-22T08:08:30.698Z,95555
2018-04-22T08:11:01.692Z,95561
2018-04-22T08:13:32.395Z,95558
2018-04-22T08:16:03.109Z,95554
2018-04-22T08:18:33.883Z,95546
2018-04-22T08:21:04.551Z,95545
2018-04-22T08:23:35.095Z,95543
2018-04-22T08:26:05.833Z,95544
2018-04-22T08:28:36.420Z,95545
2018-04-22T08:31:07.023Z,95540
2018-04-22T08:33:37.553Z,95538
2018-04-22T08:36:08.616Z,95539
2018-04-22T08:38:39.642Z,95537
2018-04-22T08:41:10.510Z,95535
2018-04-22T08:43:41.115Z,95533
2018-04-22T08:46:12.134Z,95528
2018-04-22T08:48:43.043Z,95532
2018-04-22T08:51:15.764Z,95529
2018-04-22T08:53:54.416Z,95528
2018-04-22T08:56:26.541Z,95525
2018-04-22T08:58:58.197Z,95527
2018-04-22T09:01:31.370Z,95528
2018-04-22T09:04:02.800Z,95523
2018-04-22T09:06:34.722Z,95525
2018-04-22T09:09:12.841Z,95527
2018-04-22T09:11:44.148Z,95516
2018-04-22T09:14:18.639Z,95521
2018-04-22T09:16:50.370Z,95518
2018-04-22T09:19:21.431Z,95506
2018-04-22T09:21:52.985Z,95503
2018-04-22T09:24:24.339Z,95510
2018-04-22T09:26:56.037Z,95506
2018-04-22T09:29:27.419Z,95502
2018-04-22T09:31:58.861Z,95495
2018-04-22T09:34:30.429Z,95498
2018-04-22T09:37:02.008Z,95495
2018-04-22T09:39:33.022Z,95493
2018-04-22T09:42:07.603Z,95497
2018-04-22T09:44:38.731Z,95490
2018-04-22T09:47:10.158Z,95492
2018-04-22T09:49:41.536Z,95492
2018-04-22T09:52:12.637Z,95484
2018-04-22T09:54:43.941Z,95479
2018-04-22T09:57:15.188Z,95480
2018-04-22T09:59:46.768Z,95480
2018-04-22T10:02:18.923Z,95468
2018-04-22T10:04:50.586Z,95472
2018-04-22T10:07:21.982Z,95463
2018-04-22T10:09:53.737Z,95463
2018-04-22T10:12:25.411Z,95459
2018-04-22T10:14:56.885Z,95458
2018-04-22T10:17:28.105Z,95457
2018-04-22T10:19:59.628Z,95454
2018-04-22T10:22:33.714Z,95454
2018-04-22T10:25:05.035Z,95451
2018-04-22T10:27:36.676Z,95450
2018-04-22T10:30:11.158Z,95446
2018-04-22T10:32:45.263Z,95443
2018-04-22T10:35:18.048Z,95440
2018-04-22T10:37:51.029Z,95434
2018-04-22T10:40:22.520Z,95431
2018-04-22T10:42:53.652Z,95435
2018-04-22T10:45:28.299Z,95428
2018-04-22T10:47:59.506Z,95427
2018-04-22T10:50:31.546Z,95424
2018-04-22T10:53:03.910Z,95429
2018-04-22T10:55:34.956Z,95424
2018-04-22T10:58:06.469Z,95426
2018-04-22T11:00:37.871Z,95423
2018-04-22T11:03:09.293Z,95416
2018-04-22T11:05:40.425Z,95415
2018-04-22T11:08:11.861Z,95417
2018-04-22T11:10:44.304Z,95410
2018-04-22T11:13:17.034Z,95410
2018-04-22T11:15:49.078Z,95406
2018-04-22T11:18:19.878Z,95404
2018-04-22T11:20:50.632Z,95397
2018-04-22T11:23:21.371Z,95391
2018-04-22T11:25:52.075Z,95397
2018-04-22T11:28:23.598Z,95391
2018-04-22T11:30:54.482Z,95384
2018-04-22T11:33:25.152Z,95393
2018-04-22T11:35:55.791Z,95387
2018-04-22T11:38:26.574Z,95386
2018-04-22T11:40:57.151Z,95389
2018-04-22T11:43:28.625Z,95378
2018-04-22T11:45:59.228Z,95380
2018-04-22T11:48:29.865Z,95381
2018-04-22T11:51:00.580Z,95387
2018-04-22T11:53:31.299Z,95387
2018-04-22T11:56:02.056Z,95381
2018-04-22T11:58:32.887Z,95380
2018-04-22T12:01:03.548Z,95380
2018-04-22T12:03:34.418Z,95381
2018-04-22T12:06:05.246Z,95377
2018-04-22T12:08:36.411Z,95381
2018-04-22T12:11:07.044Z,95379
2018-04-22T12:13:38.139Z,95372
2018-04-22T12:16:08.840Z,95368
2018-04-22T12:18:39.494Z,95372
2018-04-22T12:21:10.008Z,95367
2018-04-22T12:23:40.736Z,95364
2018-04-22T12:26:12.004Z,95360
2018-04-22T12:28:42.678Z,95363
2018-04-22T12:31:13.588Z,95369
2018-04-22T12:33:44.169Z,95365
2018-04-22T12:36:14.871Z,95365
2018-04-22T12:38:45.502Z,95356
2018-04-22T12:41:16.155Z,95350
2018-04-22T12:43:46.941Z,95362
2018-04-22T12:46:17.593Z,95348
2018-04-22T12:48:48.257Z,95347
2018-04-22T12:51:19.116Z,95344
2018-04-22T12:53:49.735Z,95344
2018-04-22T12:56:20.515Z,95339
2018-04-22T12:58:51.180Z,95338
2018-04-22T13:01:22.396Z,95340
2018-04-22T13:03:53.072Z,95333
2018-04-22T13:06:23.656Z,95324
2018-04-22T13:08:54.332Z,95322
2018-04-22T13:11:24.997Z,95324
2018-04-22T13:13:55.669Z,95319
2018-04-22T13:16:26.328Z,95317
2018-04-22T13:18:56.974Z,95314
2018-04-22T13:21:27.956Z,95317
2018-04-22T13:23:58.679Z,95307
2018-04-22T13:26:29.384Z,95307
2018-04-22T13:29:01.239Z,95306
2018-04-22T13:31:31.889Z,95296
2018-04-22T13:34:02.534Z,95293
2018-04-22T13:36:33.280Z,95293
2018-04-22T13:39:04.487Z,95279
2018-04-22T13:41:35.327Z,95279
2018-04-22T13:44:05.992Z,95281
2018-04-22T13:46:36.524Z,95277
2018-04-22T13:49:07.210Z,95269
2018-04-22T13:51:37.864Z,95263
2018-04-22T13:54:08.479Z,95257
2018-04-22T13:56:39.596Z,95251
2018-04-22T13:59:10.678Z,95249
2018-04-22T14:01:41.880Z,95240
2018-04-22T14:04:13.028Z,95238
2018-04-22T14:06:44.108Z,95237
2018-04-22T14:09:15.233Z,95235
2018-04-22T14:11:46.368Z,95228
2018-04-22T14:14:17.592Z,95231
2018-04-22T14:16:49.518Z,95227
2018-04-22T14:19:20.632Z,95228
2018-04-22T14:21:51.628Z,95230
2018-04-22T14:24:22.981Z,95226
2018-04-22T14:26:54.116Z,95219
2018-04-22T14:29:25.232Z,95214
2018-04-22T14:31:56.446Z,95209
2018-04-22T14:34:27.742Z,95210
2018-04-22T14:36:59.056Z,95202
2018-04-22T14:39:30.389Z,95201
2018-04-22T17:59:56.501Z,95176
2018-04-22T18:02:27.355Z,95181
2018-04-22T18:04:58.033Z,95178
2018-04-22T18:07:28.759Z,95181
2018-04-22T18:09:59.576Z,95189
2018-04-22T18:12:31.505Z,95189
2018-04-22T18:15:02.225Z,95188
2018-04-22T18:17:33.377Z,95195
2018-04-22T18:20:04.077Z,95194
2018-04-22T18:22:34.796Z,95198
2018-04-22T18:25:05.673Z,95196
2018-04-22T18:27:36.320Z,95202
2018-04-22T18:30:07.097Z,95201
2018-04-22T18:32:37.780Z,95198
2018-04-22T18:35:08.532Z,95205
2018-04-22T18:37:39.137Z,95207
2018-04-22T18:40:10.006Z,95215
2018-04-22T18:42:41.016Z,95216
2018-04-22T18:45:11.692Z,95215
2018-04-22T18:47:42.651Z,95215
2018-04-22T18:50:14.672Z,95222
2018-04-22T18:55:32.898Z,95224
2018-04-22T18:58:03.991Z,95221
2018-04-22T19:00:38.983Z,95229
2018-04-22T19:03:09.910Z,95226
2018-04-22T19:05:40.997Z,95227
2018-04-22T19:08:12.588Z,95223
2018-04-22T19:10:44.061Z,95222
2018-04-22T19:19:24.004Z,95220
2018-04-22T19:28:32.739Z,95220
2018-04-22T19:31:03.865Z,95222
2018-04-22T19:33:34.773Z,95221
2018-04-22T19:36:05.468Z,95231
2018-04-22T19:38:36.787Z,95230
2018-04-22T19:41:08.236Z,95234
2018-04-22T19:43:39.173Z,95233
2018-04-22T19:46:10.473Z,95238
2018-04-22T19:48:51.050Z,95237
2018-04-22T19:51:21.849Z,95234
2018-04-22T19:53:52.890Z,95231
2018-04-22T19:56:23.881Z,95232
2018-04-22T19:58:54.611Z,95227
2018-04-22T20:01:26.548Z,95231
2018-04-22T20:03:57.129Z,95232
2018-04-22T20:06:27.801Z,95234
2018-04-22T20:08:58.736Z,95235
2018-04-22T20:11:29.820Z,95232
2018-04-22T20:14:02.080Z,95239
2018-04-22T20:16:33.535Z,95236
2018-04-22T20:19:05.552Z,95239
2018-04-22T20:21:36.631Z,95239
2018-04-22T20:24:08.589Z,95247
2018-04-22T20:26:40.541Z,95246
2018-04-22T20:29:12.207Z,95241
2018-04-22T20:31:51.758Z,95247
2018-04-22T20:34:22.640Z,95244
2018-04-22T20:36:54.096Z,95249
2018-04-22T20:39:24.893Z,95247
2018-04-22T20:41:55.724Z,95243
2018-04-22T20:44:26.610Z,95238
2018-04-22T20:46:59.757Z,95241
2018-04-22T20:49:32.793Z,95252
2018-04-22T20:52:05.359Z,95248
2018-04-22T20:54:37.057Z,95245
2018-04-22T20:57:07.941Z,95242
2018-04-22T20:59:40.921Z,95247
2018-04-22T21:02:11.720Z,95253
2018-04-22T21:04:42.458Z,95251
2018-04-22T21:07:13.978Z,95252
2018-04-22T21:09:45.273Z,95249
2018-04-22T21:12:16.746Z,95252
2018-04-22T21:14:48.059Z,95253
2018-04-22T21:17:20.323Z,95257
2018-04-22T21:19:51.430Z,95255
2018-04-22T21:22:22.496Z,95251
2018-04-22T21:24:53.576Z,95256
2018-04-22T21:27:24.802Z,95253
2018-04-22T21:29:55.895Z,95257
2018-04-22T21:32:27.103Z,95259
2018-04-22T21:34:58.607Z,95252
2018-04-22T21:37:29.825Z,95252
2018-04-22T21:40:01.639Z,95247
2018-04-22T21:42:33.623Z,95249
2018-04-22T21:45:05.791Z,95250
2018-04-22T21:47:37.068Z,95258
2018-04-22T21:50:08.236Z,95267
2018-04-22T21:52:39.340Z,95275
2018-04-22T21:55:10.903Z,95262
2018-04-22T21:57:42.442Z,95267
2018-04-22T22:00:13.606Z,95261
2018-04-22T22:02:44.869Z,95259
2018-04-22T22:05:16.217Z,95256
2018-04-22T22:07:47.161Z,95259
2018-04-22T22:10:18.303Z,95261
2018-04-22T22:12:49.554Z,95256
2018-04-22T22:15:21.249Z,95254
2018-04-22T22:17:52.357Z,95261
2018-04-22T22:20:23.734Z,95258
2018-04-22T22:22:55.864Z,95265
2018-04-22T22:25:27.170Z,95265
2018-04-22T22:27:58.812Z,95263
2018-04-22T22:30:29.893Z,95265
2018-04-22T22:33:13.035Z,95268
2018-04-22T22:35:43.693Z,95264
2018-04-22T22:38:14.468Z,95270
2018-04-22T22:40:45.192Z,95277
2018-04-22T22:43:15.800Z,95278
2018-04-22T22:45:46.520Z,95281
2018-04-22T22:48:17.100Z,95280
2018-04-22T22:50:47.999Z,95279
2018-04-22T22:53:18.669Z,95283
2018-04-22T22:55:49.320Z,95282
2018-04-22T22:58:20.000Z,95280
2018-04-22T23:00:50.779Z,95285
2018-04-22T23:03:21.561Z,95289
2018-04-22T23:05:52.221Z,95287
2018-04-22T23:08:23.064Z,95294
2018-04-22T23:10:53.949Z,95288
2018-04-22T23:13:24.845Z,95287
2018-04-22T23:15:55.582Z,95280
2018-04-22T23:18:26.423Z,95281
2018-04-22T23:20:57.259Z,95282
2018-04-22T23:23:27.985Z,95285
2018-04-22T23:25:58.707Z,95277
2018-04-22T23:28:29.922Z,95279
2018-04-22T23:31:00.684Z,95275
2018-04-22T23:33:31.400Z,95269
2018-04-22T23:36:02.280Z,95271
2018-04-22T23:38:33.059Z,95273
2018-04-22T23:41:04.504Z,95269
2018-04-22T23:43:35.216Z,95264
2018-04-22T23:46:05.868Z,95269
2018-04-22T23:48:36.531Z,95263
2018-04-22T23:51:07.278Z,95266
2018-04-22T23:53:38.365Z,95263
2018-04-22T23:56:09.155Z,95262
2018-04-22T23:58:39.936Z,95259
